createdAt,value
2024-05-09T00:01:07.289Z,19.02
2024-05-09T00:05:11.533Z,19.00
2024-05-09T00:09:13.405Z,19.00
2024-05-09T00:13:17.358Z,19.09
2024-05-09T00:17:19.081Z,19.02
2024-05-09T00:21:21.424Z,19.01
2024-05-09T00:25:22.996Z,19.03
2024-05-09T00:29:28.056Z,18.97
2024-05-09T00:33:29.904Z,18.86
2024-05-09T00:37:31.800Z,18.82
2024-05-09T00:41:33.557Z,18.77
2024-05-09T00:45:35.836Z,18.73
2024-05-09T00:49:50.366Z,18.74
2024-05-09T00:53:52.373Z,18.84
2024-05-09T00:57:55.096Z,18.70
2024-05-09T01:01:59.208Z,18.66
2024-05-09T01:06:04.210Z,18.66
2024-05-09T01:10:11.489Z,18.55
2024-05-09T01:14:15.789Z,18.53
2024-05-09T01:18:17.799Z,18.48
2024-05-09T01:22:19.705Z,18.50
2024-05-09T01:26:21.614Z,18.47
2024-05-09T01:30:31.304Z,18.52
2024-05-09T01:34:53.256Z,18.40
2024-05-09T01:38:57.861Z,18.30
2024-05-09T01:42:59.686Z,18.25
2024-05-09T01:47:01.305Z,18.32
2024-05-09T01:51:03.094Z,18.19
2024-05-09T01:55:09.703Z,18.15
2024-05-09T01:59:25.818Z,18.08
2024-05-09T02:03:27.981Z,18.07
2024-05-09T02:07:29.816Z,18.07
2024-05-09T02:11:40.318Z,17.99
2024-05-09T02:15:42.313Z,17.90
2024-05-09T02:19:49.393Z,17.89
2024-05-09T02:24:08.959Z,17.90
2024-05-09T02:28:10.738Z,17.90
2024-05-09T02:32:12.609Z,17.89
2024-05-09T02:36:17.210Z,18.02
2024-05-09T02:40:25.618Z,17.76
2024-05-09T02:44:35.036Z,17.77
2024-05-09T02:48:36.890Z,17.81
2024-05-09T02:52:38.537Z,17.70
2024-05-09T02:56:40.102Z,17.69
2024-05-09T03:00:42.960Z,17.60
2024-05-09T03:04:45.169Z,17.71
2024-05-09T03:08:48.087Z,17.66
2024-05-09T03:12:49.665Z,17.60
2024-05-09T03:16:53.816Z,17.63
2024-05-09T03:20:55.471Z,17.54
2024-05-09T03:24:57.151Z,17.55
2024-05-09T03:28:59.172Z,17.60
2024-05-09T03:33:01.227Z,17.48
2024-05-09T03:37:03.204Z,17.40
2024-05-09T03:41:05.058Z,17.40
2024-05-09T03:45:06.625Z,17.39
2024-05-09T03:49:08.374Z,17.33
2024-05-09T03:53:11.629Z,17.33
2024-05-09T03:57:13.266Z,17.46
2024-05-09T04:01:14.950Z,17.48
2024-05-09T04:05:16.793Z,17.53
2024-05-09T04:09:18.413Z,17.54
2024-05-09T04:13:19.975Z,17.52
2024-05-09T04:17:21.582Z,17.55
2024-05-09T04:21:23.815Z,17.69
2024-05-09T04:25:25.341Z,17.69
2024-05-09T04:29:27.045Z,17.76
2024-05-09T04:33:29.755Z,17.76
2024-05-09T04:37:32.467Z,17.82
2024-05-09T04:41:34.066Z,17.90
2024-05-09T04:45:36.020Z,18.00
2024-05-09T04:49:37.770Z,18.08
2024-05-09T04:53:39.990Z,18.00
2024-05-09T04:57:41.766Z,17.90
2024-05-09T05:01:43.534Z,17.93
2024-05-09T05:05:46.145Z,18.43
2024-05-09T05:09:48.432Z,18.45
2024-05-09T05:13:50.197Z,18.76
2024-05-09T05:18:05.758Z,18.86
2024-05-09T05:22:07.572Z,19.03
2024-05-09T05:26:09.390Z,19.17
2024-05-09T05:30:17.611Z,19.48
2024-05-09T05:34:22.867Z,19.74
2024-05-09T05:38:27.434Z,20.17
2024-05-09T05:42:30.103Z,20.45
2024-05-09T05:46:31.959Z,21.02
2024-05-09T05:50:36.636Z,21.57
2024-05-09T05:54:40.188Z,21.91
2024-05-09T05:58:43.197Z,22.11
2024-05-09T06:02:45.048Z,22.41
2024-05-09T06:06:46.747Z,22.76
2024-05-09T06:10:48.523Z,23.20
2024-05-09T06:14:50.244Z,23.97
2024-05-09T06:18:52.219Z,24.13
2024-05-09T06:22:53.944Z,24.16
2024-05-09T06:26:55.669Z,24.28
2024-05-09T06:30:57.284Z,24.37
2024-05-09T06:34:58.914Z,25.17
2024-05-09T06:39:00.555Z,25.18
2024-05-09T06:43:04.139Z,25.62
2024-05-09T06:47:05.777Z,26.55
2024-05-09T06:51:07.456Z,26.48
2024-05-09T06:55:09.135Z,26.16
2024-05-09T06:59:10.854Z,26.78
2024-05-09T07:03:16.869Z,26.71
2024-05-09T07:07:20.076Z,27.18
2024-05-09T07:11:21.774Z,27.80
2024-05-09T07:15:23.495Z,28.67
2024-05-09T07:19:25.195Z,29.20
2024-05-09T07:23:28.282Z,28.92
2024-05-09T07:27:30.045Z,29.57
2024-05-09T07:31:34.919Z,30.02
2024-05-09T07:39:54.823Z,30.64
2024-05-09T07:43:56.532Z,30.89
2024-05-09T07:49:44.348Z,30.69
2024-05-09T07:53:30.378Z,30.95
2024-05-09T07:56:46.840Z,31.37
2024-05-09T08:00:48.654Z,31.26
2024-05-09T08:04:50.360Z,31.21
2024-05-09T08:08:52.227Z,32.13
2024-05-09T08:12:54.254Z,31.13
2024-05-09T08:16:55.974Z,31.22
2024-05-09T08:20:58.274Z,31.41
2024-05-09T08:25:00.025Z,30.96
2024-05-09T08:29:01.761Z,31.98
2024-05-09T08:33:04.730Z,32.94
2024-05-09T08:37:13.122Z,30.98
2024-05-09T08:41:21.303Z,33.28
2024-05-09T08:45:23.275Z,33.87
2024-05-09T08:49:26.405Z,33.01
2024-05-09T08:53:28.170Z,33.02
2024-05-09T08:57:35.812Z,34.16
2024-05-09T09:01:41.611Z,34.27
2024-05-09T09:05:54.278Z,33.91
2024-05-09T09:09:56.432Z,34.28
2024-05-09T09:13:58.154Z,34.91
2024-05-09T09:18:00.873Z,35.90
2024-05-09T09:22:03.013Z,36.71
2024-05-09T09:26:05.114Z,34.97
2024-05-09T09:30:15.507Z,36.72
2024-05-09T09:34:27.978Z,35.89
2024-05-09T09:38:31.598Z,36.02
2024-05-09T09:42:35.371Z,36.52
2024-05-09T09:46:38.422Z,36.47
2024-05-09T09:50:41.611Z,36.15
2024-05-09T09:54:45.258Z,34.60
2024-05-09T09:58:48.360Z,35.93
2024-05-09T10:02:50.018Z,36.89
2024-05-09T10:06:59.546Z,37.11
2024-05-09T10:11:04.453Z,36.51
2024-05-09T10:15:09.078Z,37.39
2024-05-09T10:19:30.998Z,38.88
2024-05-09T10:23:34.540Z,37.66
2024-05-09T10:27:36.420Z,38.85
2024-05-09T10:31:41.602Z,36.94
2024-05-09T10:35:51.740Z,36.26
2024-05-09T10:39:57.105Z,38.66
2024-05-09T10:43:58.778Z,35.27
2024-05-09T10:48:00.803Z,36.20
2024-05-09T10:52:03.971Z,36.62
2024-05-09T10:56:05.972Z,37.92
2024-05-09T11:00:15.603Z,36.54
2024-05-09T11:04:28.297Z,35.47
2024-05-09T11:08:32.129Z,36.24
2024-05-09T11:12:34.068Z,35.22
2024-05-09T11:16:41.362Z,36.92
2024-05-09T11:20:43.484Z,35.38
2024-05-09T11:24:45.456Z,36.16
2024-05-09T11:28:47.586Z,36.81
2024-05-09T11:32:51.820Z,32.38
2024-05-09T11:36:56.839Z,31.95
2024-05-09T11:40:58.737Z,32.92
2024-05-09T11:45:00.480Z,34.56
2024-05-09T11:49:02.539Z,36.57
2024-05-09T11:53:04.628Z,33.70
2024-05-09T11:57:06.414Z,31.42
2024-05-09T12:01:08.242Z,32.33
2024-05-09T12:05:10.234Z,32.20
2024-05-09T12:09:11.899Z,33.49
2024-05-09T12:13:13.749Z,34.17
2024-05-09T12:17:15.560Z,31.80
2024-05-09T12:21:17.512Z,31.63
2024-05-09T12:25:19.255Z,30.94
2024-05-09T12:29:21.207Z,30.96
2024-05-09T12:33:22.873Z,31.47
2024-05-09T12:37:24.797Z,31.97
2024-05-09T12:41:26.363Z,31.49
2024-05-09T12:45:28.212Z,31.08
2024-05-09T12:49:30.175Z,30.26
2024-05-09T12:53:31.902Z,28.27
2024-05-09T12:57:33.830Z,26.11
2024-05-09T13:01:35.642Z,28.50
2024-05-09T13:05:37.416Z,29.68
2024-05-09T13:09:39.660Z,30.06
2024-05-09T13:13:41.376Z,30.51
2024-05-09T13:17:43.282Z,30.67
2024-05-09T13:21:51.793Z,30.94
2024-05-09T13:25:53.538Z,31.05
2024-05-09T13:29:57.329Z,28.65
2024-05-09T13:34:01.113Z,26.89
2024-05-09T13:38:03.451Z,28.69
2024-05-09T13:42:06.066Z,29.56
2024-05-09T13:46:09.293Z,28.92
2024-05-09T13:50:16.936Z,29.39
2024-05-09T13:54:25.684Z,28.28
2024-05-09T13:58:27.372Z,29.79
2024-05-09T14:02:30.909Z,29.89
2024-05-09T14:06:32.720Z,29.95
2024-05-09T14:10:35.607Z,29.95
2024-05-09T14:14:37.277Z,29.95
2024-05-09T14:18:41.302Z,29.56
2024-05-09T14:22:42.950Z,30.06
2024-05-09T14:26:44.659Z,30.22
2024-05-09T14:30:46.363Z,30.15
2024-05-09T14:34:48.088Z,29.97
2024-05-09T14:38:49.794Z,29.51
2024-05-09T14:42:51.563Z,30.04
2024-05-09T14:46:53.301Z,30.17
2024-05-09T14:50:55.068Z,30.15
2024-05-09T14:55:00.345Z,30.34
2024-05-09T14:59:03.325Z,30.31
2024-05-09T15:03:05.538Z,29.60
2024-05-09T15:07:08.349Z,29.61
2024-05-09T15:11:11.958Z,30.03
2024-05-09T15:15:13.697Z,30.07
2024-05-09T15:19:15.362Z,30.04
2024-05-09T15:23:17.325Z,30.04
2024-05-09T15:27:19.145Z,30.17
2024-05-09T15:31:20.884Z,30.19
2024-05-09T15:35:38.255Z,30.16
2024-05-09T15:39:41.776Z,29.79
2024-05-09T15:43:43.417Z,29.21
2024-05-09T15:47:45.382Z,28.32
2024-05-09T15:51:48.602Z,27.38
2024-05-09T15:55:50.354Z,27.63
2024-05-09T15:59:52.192Z,28.53
2024-05-09T16:03:54.081Z,28.03
2024-05-09T16:07:56.047Z,27.57
2024-05-09T16:11:57.696Z,29.00
2024-05-09T16:16:00.285Z,29.20
2024-05-09T16:20:03.879Z,29.28
2024-05-09T16:24:08.977Z,29.54
2024-05-09T16:28:16.199Z,28.98
2024-05-09T16:32:22.607Z,29.07
2024-05-09T16:36:26.617Z,29.15
2024-05-09T16:40:36.316Z,28.99
2024-05-09T16:44:44.372Z,29.17
2024-05-09T16:48:50.250Z,28.85
2024-05-09T16:52:52.122Z,28.79
2024-05-09T16:56:53.864Z,28.59
2024-05-09T17:00:55.716Z,28.32
2024-05-09T17:04:57.382Z,28.32
2024-05-09T17:09:05.272Z,28.23
2024-05-09T17:13:10.455Z,28.04
2024-05-09T17:17:12.476Z,27.95
2024-05-09T17:21:15.726Z,27.89
2024-05-09T17:25:17.554Z,27.84
2024-05-09T17:29:21.768Z,28.02
2024-05-09T17:33:23.475Z,28.13
2024-05-09T17:37:28.021Z,28.08
2024-05-09T17:41:29.642Z,27.80
2024-05-09T17:45:31.389Z,28.12
2024-05-09T17:49:33.549Z,27.42
2024-05-09T17:53:35.463Z,27.66
2024-05-09T17:57:37.201Z,27.35
2024-05-09T18:01:38.970Z,27.56
2024-05-09T18:05:41.809Z,27.41
2024-05-09T18:09:44.672Z,27.49
2024-05-09T18:13:50.395Z,27.35
2024-05-09T18:17:52.386Z,27.37
2024-05-09T18:21:54.479Z,27.30
2024-05-09T18:25:57.223Z,27.09
2024-05-09T18:29:58.883Z,27.21
2024-05-09T18:34:00.777Z,27.01
2024-05-09T18:38:07.552Z,26.78
2024-05-09T18:42:12.971Z,26.98
2024-05-09T18:46:14.619Z,26.82
2024-05-09T18:50:24.684Z,26.69
2024-05-09T18:54:33.985Z,26.49
2024-05-09T18:58:35.763Z,26.18
2024-05-09T19:02:37.761Z,26.19
2024-05-09T19:06:41.044Z,26.17
2024-05-09T19:11:11.877Z,26.09
2024-05-09T19:15:13.661Z,25.91
2024-05-09T19:19:15.567Z,25.90
2024-05-09T19:23:17.393Z,25.80
2024-05-09T19:27:19.161Z,25.52
2024-05-09T19:31:21.229Z,25.69
2024-05-09T19:35:22.873Z,25.43
2024-05-09T19:39:25.088Z,25.24
2024-05-09T19:43:27.260Z,25.30
2024-05-09T19:47:29.244Z,25.26
2024-05-09T19:51:32.384Z,25.19
2024-05-09T19:55:35.090Z,25.05
2024-05-09T19:59:36.967Z,24.94
2024-05-09T20:03:46.391Z,24.94
2024-05-09T20:07:48.043Z,24.99
2024-05-09T20:11:49.727Z,24.52
2024-05-09T20:15:51.595Z,24.87
2024-05-09T20:19:53.455Z,24.65
2024-05-09T20:23:55.157Z,24.42
2024-05-09T20:27:56.988Z,24.66
2024-05-09T20:31:58.723Z,24.63
2024-05-09T20:36:02.200Z,24.55
2024-05-09T20:40:07.990Z,24.52
2024-05-09T20:44:11.832Z,24.30
2024-05-09T20:48:13.845Z,24.27
2024-05-09T20:52:15.809Z,24.23
2024-05-09T20:56:22.154Z,24.34
2024-05-09T21:00:30.337Z,24.32
2024-05-09T21:04:42.338Z,24.05
2024-05-09T21:08:44.034Z,24.01
2024-05-09T21:12:45.936Z,23.99
2024-05-09T21:16:47.668Z,23.78
2024-05-09T21:20:49.402Z,23.72
2024-05-09T21:24:51.129Z,23.40
2024-05-09T21:28:52.902Z,23.43
2024-05-09T21:32:54.776Z,23.38
2024-05-09T21:36:58.048Z,23.24
2024-05-09T21:40:59.752Z,23.15
2024-05-09T21:45:06.198Z,23.28
2024-05-09T21:49:08.158Z,23.14
2024-05-09T21:53:11.196Z,23.14
2024-05-09T21:57:14.559Z,23.10
2024-05-09T22:01:16.349Z,23.09
2024-05-09T22:05:18.187Z,23.04
2024-05-09T22:09:19.888Z,22.94
2024-05-09T22:13:21.837Z,23.02
2024-05-09T22:17:25.626Z,22.82
2024-05-09T22:21:27.505Z,22.79
2024-05-09T22:25:30.900Z,22.62
2024-05-09T22:29:33.400Z,22.53
2024-05-09T22:33:35.296Z,22.48
2024-05-09T22:37:37.432Z,22.44
2024-05-09T22:41:40.348Z,22.47
2024-05-09T22:45:42.146Z,22.24
2024-05-09T22:49:43.798Z,22.25
2024-05-09T22:53:45.446Z,22.19
2024-05-09T22:57:47.162Z,22.15
2024-05-09T23:01:48.844Z,22.11
2024-05-09T23:05:50.587Z,21.95
2024-05-09T23:09:52.294Z,21.84
2024-05-09T23:13:53.821Z,21.85
2024-05-09T23:17:55.803Z,21.94
2024-05-09T23:21:57.831Z,21.85
2024-05-09T23:25:59.651Z,21.76
2024-05-09T23:30:01.236Z,21.69
2024-05-09T23:34:02.889Z,21.72
2024-05-09T23:38:04.999Z,21.67
2024-05-09T23:42:06.802Z,21.60
2024-05-09T23:46:10.985Z,21.55
2024-05-09T23:50:17.058Z,21.56
2024-05-09T23:54:25.201Z,21.57
2024-05-09T23:58:30.029Z,21.57
